Time;durP1;ratioP1;P1;durP2;ratioP2;P2;SDS_P1;SDS_P2;PMS_P1;PMS_P2;Temp;Humidity;BMP_temperature;BMP_pressure;BME280_temperature;BME280_humidity;BME280_pressure;Samples;Min_cycle;Max_cycle;Signal;HPM_P1;HPM_P2
2023/06/12 00:02:13;;;;;;;8.00;5.40;;;16.40;99.90;;;;;;5034126;28;20513;-54
2023/06/12 00:04:39;;;;;;;6.13;5.60;;;16.30;99.90;;;;;;5033155;28;20586;-55
2023/06/12 00:07:06;;;;;;;12.47;6.50;;;16.30;99.90;;;;;;5035142;28;20443;-55
2023/06/12 00:09:34;;;;;;;8.87;5.70;;;16.20;99.90;;;;;;5034543;28;20494;-55
2023/06/12 00:12:00;;;;;;;6.40;5.60;;;16.20;99.90;;;;;;5039992;28;20466;-55
2023/06/12 00:14:27;;;;;;;9.63;5.60;;;16.20;99.90;;;;;;5029514;28;20487;-55
2023/06/12 00:16:53;;;;;;;6.10;5.60;;;16.10;99.90;;;;;;5031136;28;20486;-55
2023/06/12 00:19:21;;;;;;;6.30;5.80;;;16.10;99.90;;;;;;5032834;28;20506;-56
2023/06/12 00:21:48;;;;;;;7.93;6.00;;;16.10;99.90;;;;;;5033352;28;20459;-54
2023/06/12 00:24:15;;;;;;;5.90;5.37;;;16.10;99.90;;;;;;5032754;28;20518;-55
2023/06/12 00:26:41;;;;;;;6.60;6.00;;;16.10;99.90;;;;;;5034945;28;20474;-54
2023/06/12 00:29:08;;;;;;;6.30;5.50;;;16.00;99.90;;;;;;5031853;28;20519;-54
2023/06/12 00:31:34;;;;;;;7.43;5.87;;;16.00;99.90;;;;;;5033535;28;20495;-55
2023/06/12 00:34:01;;;;;;;10.73;5.70;;;15.90;99.90;;;;;;5044106;28;20445;-54
2023/06/12 00:36:29;;;;;;;8.50;5.50;;;15.90;99.90;;;;;;5033970;28;20479;-57
2023/06/12 00:38:55;;;;;;;9.90;5.53;;;15.90;99.90;;;;;;5030798;28;20510;-55
2023/06/12 00:41:22;;;;;;;11.63;5.93;;;15.90;99.90;;;;;;5034432;28;20879;-56
2023/06/12 00:43:49;;;;;;;10.40;5.10;;;15.80;99.90;;;;;;5033189;28;20913;-56
2023/06/12 00:46:16;;;;;;;9.47;5.73;;;15.80;99.90;;;;;;5026009;28;20443;-55
2023/06/12 00:48:42;;;;;;;7.73;5.10;;;15.70;99.90;;;;;;5025314;28;20515;-55
2023/06/12 00:51:09;;;;;;;9.03;5.43;;;15.70;99.90;;;;;;5032084;28;20463;-54
2023/06/12 00:53:37;;;;;;;6.07;5.50;;;15.70;99.90;;;;;;5034488;28;20468;-57
2023/06/12 00:56:04;;;;;;;8.87;5.83;;;15.70;99.90;;;;;;5033883;28;20486;-55
2023/06/12 00:58:31;;;;;;;6.30;5.53;;;15.60;99.90;;;;;;5030202;28;20976;-56
2023/06/12 01:00:57;;;;;;;13.23;5.40;;;15.60;99.90;;;;;;5034010;28;20883;-55
2023/06/12 01:03:24;;;;;;;5.80;5.20;;;15.60;99.90;;;;;;5031476;28;20465;-56
2023/06/12 01:05:52;;;;;;;16.77;5.70;;;15.50;99.90;;;;;;5030943;28;20463;-54
2023/06/12 01:08:27;;;;;;;5.93;5.43;;;15.50;99.90;;;;;;5034352;28;20514;-51
2023/06/12 01:10:58;;;;;;;5.20;4.80;;;15.40;99.90;;;;;;5030965;28;20960;-51
2023/06/12 01:13:25;;;;;;;4.77;4.30;;;15.40;99.90;;;;;;5032594;28;20490;-51
2023/06/12 01:15:51;;;;;;;13.27;5.13;;;15.30;99.90;;;;;;5033821;28;20882;-51
2023/06/12 01:18:20;;;;;;;7.20;5.13;;;15.30;99.90;;;;;;5031764;28;20545;-51
2023/06/12 01:20:47;;;;;;;8.20;5.70;;;15.20;99.90;;;;;;5031636;28;20545;-51
2023/06/12 01:23:25;;;;;;;10.87;5.40;;;15.20;99.90;;;;;;5034915;28;20491;-51
2023/06/12 01:26:11;;;;;;;6.83;5.47;;;15.20;99.90;;;;;;5033430;28;21002;-51
2023/06/12 01:29:16;;;;;;;10.33;5.50;;;15.20;99.90;;;;;;5031496;28;20506;-51
2023/06/12 01:31:56;;;;;;;12.67;7.20;;;15.10;99.90;;;;;;5033353;28;20438;-51
2023/06/12 01:34:27;;;;;;;8.30;4.97;;;15.00;99.90;;;;;;5026591;28;20456;-51
2023/06/12 01:37:01;;;;;;;12.33;4.87;;;15.00;99.90;;;;;;5030088;28;20980;-52
2023/06/12 01:39:30;;;;;;;11.60;5.40;;;14.90;99.90;;;;;;5031030;28;20454;-50
2023/06/12 01:41:57;;;;;;;6.30;5.70;;;14.90;99.90;;;;;;5037346;28;20487;-52
2023/06/12 01:44:23;;;;;;;5.23;4.83;;;14.90;99.90;;;;;;5032072;28;20562;-51
2023/06/12 01:46:51;;;;;;;9.27;5.60;;;14.90;99.90;;;;;;5031673;28;20950;-52
2023/06/12 01:49:18;;;;;;;11.83;5.77;;;14.80;99.90;;;;;;5032507;28;20517;-51
2023/06/12 01:51:44;;;;;;;12.90;5.77;;;14.80;99.90;;;;;;5030570;28;20501;-50
2023/06/12 01:54:11;;;;;;;6.40;5.20;;;14.80;99.90;;;;;;5029200;28;20488;-51
2023/06/12 01:56:37;;;;;;;7.20;5.30;;;14.70;99.90;;;;;;5020841;28;21000;-52
2023/06/12 01:59:04;;;;;;;9.53;5.40;;;14.70;99.90;;;;;;5033636;28;20529;-51
2023/06/12 02:01:31;;;;;;;7.63;5.80;;;14.60;99.90;;;;;;5032092;28;20465;-52
2023/06/12 02:03:59;;;;;;;5.37;4.97;;;14.60;99.90;;;;;;5031153;28;20593;-51
2023/06/12 02:06:25;;;;;;;11.33;5.00;;;14.60;99.90;;;;;;5030574;28;20498;-52
2023/06/12 02:08:52;;;;;;;13.20;5.57;;;14.50;99.90;;;;;;5031790;28;20552;-52
2023/06/12 02:11:18;;;;;;;5.60;5.20;;;14.50;99.90;;;;;;5021540;28;20522;-52
2023/06/12 02:13:45;;;;;;;5.70;5.00;;;14.40;99.90;;;;;;5035122;28;20491;-52
2023/06/12 02:16:13;;;;;;;10.83;5.47;;;14.40;99.90;;;;;;5029931;28;20483;-50
2023/06/12 02:18:40;;;;;;;5.53;5.00;;;14.30;99.90;;;;;;5036537;28;20475;-52
2023/06/12 02:21:08;;;;;;;6.00;5.40;;;14.30;99.90;;;;;;5032889;28;20978;-51
2023/06/12 02:23:35;;;;;;;6.13;5.53;;;14.30;99.90;;;;;;5026288;28;20484;-52
2023/06/12 02:26:01;;;;;;;6.23;4.90;;;14.20;99.90;;;;;;5020044;28;20486;-51
2023/06/12 02:28:28;;;;;;;6.93;5.90;;;14.20;99.90;;;;;;5025944;28;20925;-52
2023/06/12 02:30:54;;;;;;;6.53;5.93;;;14.10;99.90;;;;;;5031794;28;21042;-52
2023/06/12 02:33:22;;;;;;;7.70;5.30;;;14.10;99.90;;;;;;5029297;28;20484;-53
2023/06/12 02:35:48;;;;;;;6.23;5.40;;;14.10;99.90;;;;;;5025061;28;21079;-51
2023/06/12 02:38:16;;;;;;;10.80;5.53;;;14.00;99.90;;;;;;5039512;28;20515;-52
2023/06/12 02:40:43;;;;;;;5.73;5.23;;;13.90;99.90;;;;;;5029384;28;20497;-51
2023/06/12 02:43:09;;;;;;;4.77;4.47;;;13.90;99.90;;;;;;5029660;28;21000;-52
2023/06/12 02:45:36;;;;;;;5.77;5.17;;;13.80;99.90;;;;;;5029850;28;20913;-52
2023/06/12 02:48:03;;;;;;;7.90;5.50;;;13.80;99.90;;;;;;5028135;28;21186;-52
2023/06/12 02:50:29;;;;;;;5.67;5.17;;;13.80;99.90;;;;;;5025763;28;20447;-52
2023/06/12 02:52:56;;;;;;;6.50;6.00;;;13.70;99.90;;;;;;5031273;28;20474;-53
2023/06/12 02:55:24;;;;;;;7.80;5.40;;;13.70;99.90;;;;;;5030436;28;20565;-51
2023/06/12 02:57:51;;;;;;;8.70;5.73;;;13.70;99.90;;;;;;5032114;28;20471;-52
2023/06/12 03:00:18;;;;;;;5.93;5.33;;;13.50;99.90;;;;;;5031320;28;20841;-51
2023/06/12 03:02:47;;;;;;;14.10;5.00;;;13.40;99.90;;;;;;5024314;28;20546;-52
2023/06/12 03:05:14;;;;;;;6.80;5.00;;;13.40;99.90;;;;;;5036296;28;20483;-51
2023/06/12 03:07:42;;;;;;;8.33;4.70;;;13.30;99.90;;;;;;5031373;28;20513;-52
2023/06/12 03:10:09;;;;;;;5.63;5.10;;;13.30;99.90;;;;;;5028910;28;21026;-52
2023/06/12 03:12:37;;;;;;;8.70;4.97;;;13.20;1.40;;;;;;5031522;28;20968;-52
2023/06/12 03:15:05;;;;;;;7.03;5.60;;;13.20;99.90;;;;;;5031152;28;20502;-52
2023/06/12 03:17:31;;;;;;;11.47;5.80;;;13.20;99.90;;;;;;5028865;28;20474;-52
2023/06/12 03:19:58;;;;;;;7.87;5.60;;;13.20;99.90;;;;;;5030138;28;20487;-51
2023/06/12 03:22:24;;;;;;;8.33;5.40;;;13.20;99.90;;;;;;5032078;28;20470;-52
2023/06/12 03:24:53;;;;;;;6.50;4.90;;;13.20;99.90;;;;;;5031403;28;20854;-51
2023/06/12 03:27:20;;;;;;;6.40;5.20;;;13.30;99.90;;;;;;5027789;28;20832;-51
2023/06/12 03:29:48;;;;;;;5.80;5.30;;;13.40;99.90;;;;;;5046519;28;20507;-52
2023/06/12 03:32:14;;;;;;;6.80;5.83;;;13.40;99.90;;;;;;5029105;28;20484;-51
2023/06/12 03:34:41;;;;;;;15.40;5.40;;;13.40;99.90;;;;;;5031309;28;20990;-52
2023/06/12 03:37:07;;;;;;;6.30;4.80;;;13.40;99.90;;;;;;5029973;28;20491;-51
2023/06/12 03:39:34;;;;;;;6.03;5.40;;;13.50;99.90;;;;;;5031672;28;20479;-51
2023/06/12 03:42:01;;;;;;;5.10;4.63;;;13.40;99.90;;;;;;5030135;28;20832;-51
2023/06/12 03:44:27;;;;;;;7.13;5.20;;;13.50;99.90;;;;;;5030404;28;20566;-52
2023/06/12 03:46:55;;;;;;;10.10;5.40;;;13.50;99.90;;;;;;5029394;28;20506;-51
2023/06/12 03:49:23;;;;;;;6.03;5.13;;;13.50;99.90;;;;;;5028366;28;20523;-53
2023/06/12 03:51:49;;;;;;;6.50;5.10;;;13.60;99.90;;;;;;5011866;28;20539;-52
2023/06/12 03:54:18;;;;;;;6.93;4.73;;;13.60;99.90;;;;;;5021682;28;20486;-52
2023/06/12 03:56:44;;;;;;;7.03;5.33;;;13.60;99.90;;;;;;5029995;28;20494;-51
2023/06/12 03:59:11;;;;;;;6.80;5.00;;;13.70;99.90;;;;;;5029977;28;20569;-51
2023/06/12 04:01:38;;;;;;;6.63;5.07;;;13.70;99.90;;;;;;5034676;28;20462;-52
2023/06/12 04:04:06;;;;;;;6.70;5.50;;;13.70;99.90;;;;;;5030302;28;20855;-52
2023/06/12 04:06:33;;;;;;;4.17;3.87;;;13.80;99.90;;;;;;5017256;28;20483;-52
2023/06/12 04:09:01;;;;;;;8.30;4.80;;;13.80;99.90;;;;;;5029196;28;20825;-52
2023/06/12 04:11:28;;;;;;;7.53;5.43;;;13.80;99.90;;;;;;5030510;28;20852;-51
2023/06/12 04:13:55;;;;;;;8.53;4.90;;;13.90;99.90;;;;;;5030688;28;20463;-52
2023/06/12 04:16:21;;;;;;;4.93;4.53;;;13.90;99.90;;;;;;5029495;28;20487;-52
2023/06/12 04:18:48;;;;;;;6.93;4.83;;;14.00;99.90;;;;;;5026699;28;20917;-51
2023/06/12 04:21:16;;;;;;;8.73;5.17;;;14.10;99.90;;;;;;5028853;28;20450;-51
2023/06/12 04:23:47;;;;;;;10.13;4.87;;;14.10;99.90;;;;;;5027803;28;20463;-52
2023/06/12 04:26:14;;;;;;;5.40;4.97;;;14.20;99.90;;;;;;5027544;28;20944;-52
2023/06/12 04:28:42;;;;;;;15.43;4.93;;;14.30;99.90;;;;;;5037570;28;20513;-51
2023/06/12 04:31:08;;;;;;;10.40;5.37;;;14.40;99.90;;;;;;5029100;28;20459;-51
2023/06/12 04:33:37;;;;;;;5.37;4.80;;;14.50;99.90;;;;;;5026865;28;20474;-51
2023/06/12 04:36:07;;;;;;;6.03;4.80;;;14.60;99.90;;;;;;5023984;28;20943;-52
2023/06/12 04:38:38;;;;;;;5.77;5.10;;;14.70;99.90;;;;;;5026782;28;20491;-52
2023/06/12 04:41:06;;;;;;;5.53;5.03;;;14.80;99.90;;;;;;5026669;28;20459;-52
2023/06/12 04:43:33;;;;;;;12.27;4.67;;;14.90;99.90;;;;;;5027153;28;20460;-52
2023/06/12 04:45:59;;;;;;;9.77;4.83;;;14.90;99.90;;;;;;5030288;28;20514;-52
2023/06/12 04:48:26;;;;;;;6.03;4.60;;;15.00;99.90;;;;;;5033014;28;20582;-52
2023/06/12 04:50:53;;;;;;;7.73;4.60;;;15.10;99.90;;;;;;5027915;28;20462;-52
2023/06/12 04:53:27;;;;;;;7.27;4.33;;;15.20;99.90;;;;;;5040610;28;20589;-52
2023/06/12 04:55:56;;;;;;;17.23;5.30;;;15.20;99.90;;;;;;5034455;28;20887;-52
2023/06/12 04:58:23;;;;;;;9.13;4.43;;;15.30;99.90;;;;;;5032098;28;20500;-52
2023/06/12 05:00:49;;;;;;;15.47;5.20;;;15.40;99.90;;;;;;5024943;28;20489;-52
2023/06/12 05:03:16;;;;;;;9.23;4.73;;;15.60;99.90;;;;;;5032228;28;20453;-52
2023/06/12 05:05:43;;;;;;;6.73;4.50;;;15.70;99.90;;;;;;5023918;28;20486;-51
2023/06/12 05:08:10;;;;;;;5.03;4.63;;;15.80;99.90;;;;;;5032635;28;20521;-52
2023/06/12 05:10:36;;;;;;;5.20;4.83;;;15.90;99.90;;;;;;5028829;28;20469;-52
2023/06/12 05:13:04;;;;;;;12.00;5.60;;;16.00;99.90;;;;;;5041317;28;20550;-52
2023/06/12 05:15:31;;;;;;;7.30;3.73;;;16.20;99.90;;;;;;5031737;28;20494;-52
2023/06/12 05:17:57;;;;;;;9.63;4.03;;;16.20;99.90;;;;;;5030861;28;20582;-52
2023/06/12 05:20:24;;;;;;;9.80;4.07;;;16.40;99.90;;;;;;5029748;28;20894;-52
2023/06/12 05:22:51;;;;;;;4.53;4.00;;;16.60;99.90;;;;;;5032317;28;20521;-52
2023/06/12 05:25:17;;;;;;;4.97;3.90;;;16.70;99.90;;;;;;5032379;28;20485;-52
2023/06/12 05:27:44;;;;;;;3.50;3.20;;;17.00;99.90;;;;;;5031050;28;20859;-51
2023/06/12 05:30:12;;;;;;;6.47;3.37;;;17.20;99.90;;;;;;5030097;28;20498;-52
2023/06/12 05:32:39;;;;;;;5.10;3.50;;;17.20;99.90;;;;;;5025687;28;20563;-51
2023/06/12 05:35:07;;;;;;;3.97;3.67;;;17.30;99.90;;;;;;5049293;28;20442;-51
2023/06/12 05:37:34;;;;;;;11.00;3.50;;;17.40;99.90;;;;;;5028101;28;21017;-52
2023/06/12 05:40:01;;;;;;;5.97;4.07;;;17.50;99.90;;;;;;5035561;28;20933;-51
2023/06/12 05:42:28;;;;;;;4.30;4.00;;;17.60;99.90;;;;;;5033307;28;20865;-52
2023/06/12 05:44:54;;;;;;;5.60;3.60;;;17.80;99.90;;;;;;5029464;28;20550;-50
2023/06/12 05:47:22;;;;;;;7.77;4.20;;;17.90;99.90;;;;;;5032814;28;20491;-51
2023/06/12 05:49:49;;;;;;;8.00;3.90;;;18.00;99.90;;;;;;5033038;28;20912;-51
2023/06/12 05:52:16;;;;;;;13.13;3.53;;;18.10;99.90;;;;;;5033040;28;20474;-51
2023/06/12 05:54:42;;;;;;;12.50;4.27;;;18.30;99.90;;;;;;5031335;28;20566;-50
2023/06/12 05:57:09;;;;;;;5.63;3.87;;;18.40;99.90;;;;;;5031599;28;20490;-50
2023/06/12 05:59:35;;;;;;;4.17;3.47;;;18.50;99.90;;;;;;5034211;28;20495;-51
2023/06/12 06:02:02;;;;;;;7.23;3.40;;;18.60;99.90;;;;;;5025897;28;20544;-51
2023/06/12 06:04:30;;;;;;;4.50;3.13;;;18.50;99.90;;;;;;5020437;28;20458;-51
2023/06/12 06:06:57;;;;;;;7.37;3.90;;;18.50;99.90;;;;;;5029278;28;20515;-51
2023/06/12 06:09:23;;;;;;;4.53;3.23;;;18.60;99.90;;;;;;5023660;28;20531;-51
2023/06/12 06:11:50;;;;;;;11.43;4.10;;;18.60;99.90;;;;;;5026659;28;20549;-51
2023/06/12 06:14:18;;;;;;;6.03;3.27;;;18.60;99.90;;;;;;5028097;28;20962;-51
2023/06/12 06:16:45;;;;;;;10.70;3.87;;;18.60;99.90;;;;;;5028060;28;20541;-51
2023/06/12 06:19:11;;;;;;;6.80;3.70;;;18.70;99.90;;;;;;5028952;28;20487;-51
2023/06/12 06:21:40;;;;;;;3.40;3.20;;;18.80;99.90;;;;;;5027704;28;20499;-51
2023/06/12 06:24:07;;;;;;;6.47;4.10;;;18.90;99.90;;;;;;5026832;28;20587;-51
2023/06/12 06:26:33;;;;;;;4.03;3.73;;;19.10;99.90;;;;;;5022604;28;20924;-50
2023/06/12 06:29:00;;;;;;;4.40;3.23;;;19.20;99.90;;;;;;5024517;28;20487;-51
2023/06/12 06:31:27;;;;;;;8.97;3.80;;;19.30;99.90;;;;;;5023955;28;20474;-50
2023/06/12 06:33:53;;;;;;;3.87;3.47;;;19.40;99.90;;;;;;5024801;28;20474;-51
2023/06/12 06:36:20;;;;;;;4.33;3.57;;;19.50;99.90;;;;;;5021068;28;20558;-51
2023/06/12 06:38:48;;;;;;;7.13;3.77;;;19.60;99.90;;;;;;5027292;28;20928;-51
2023/06/12 06:41:14;;;;;;;12.90;4.00;;;19.80;99.90;;;;;;5020632;28;20484;-51
2023/06/12 06:43:41;;;;;;;3.43;3.23;;;20.00;99.90;;;;;;5027739;28;20509;-51
2023/06/12 06:46:07;;;;;;;8.53;3.80;;;20.10;99.90;;;;;;5029025;28;20591;-50
2023/06/12 06:48:34;;;;;;;5.20;3.23;;;20.10;99.90;;;;;;5026442;28;20513;-52
2023/06/12 06:51:02;;;;;;;12.73;7.43;;;20.10;99.90;;;;;;5030605;28;21036;-50
2023/06/12 06:53:28;;;;;;;5.47;3.30;;;20.20;99.90;;;;;;5027038;28;20478;-52
2023/06/12 06:55:56;;;;;;;11.73;3.57;;;20.20;99.90;;;;;;5025583;28;20483;-50
2023/06/12 06:58:23;;;;;;;6.90;4.07;;;20.20;99.90;;;;;;5028541;28;20505;-50
2023/06/12 07:00:49;;;;;;;4.83;3.47;;;20.50;99.90;;;;;;5029328;28;20456;-50
2023/06/12 07:03:16;;;;;;;6.30;4.00;;;20.50;99.90;;;;;;5029090;28;20550;-51
2023/06/12 07:05:43;;;;;;;5.70;3.40;;;20.60;99.90;;;;;;5023060;28;20538;-52
2023/06/12 07:08:10;;;;;;;4.20;3.80;;;20.80;99.90;;;;;;5033037;22;20574;-51
2023/06/12 07:10:37;;;;;;;11.33;3.63;;;20.90;99.90;;;;;;5007908;28;20460;-50
2023/06/12 07:13:04;;;;;;;5.83;3.63;;;21.00;99.90;;;;;;5009113;28;20463;-51
2023/06/12 07:15:31;;;;;;;11.20;4.13;;;21.00;99.90;;;;;;5011056;28;20487;-52
2023/06/12 07:17:57;;;;;;;6.43;4.30;;;21.10;99.90;;;;;;5008019;28;20510;-50
2023/06/12 07:20:24;;;;;;;4.50;3.70;;;21.30;99.90;;;;;;5012066;28;20464;-51
2023/06/12 07:22:51;;;;;;;4.27;3.53;;;21.30;99.90;;;;;;5008647;28;20460;-51
2023/06/12 07:25:17;;;;;;;4.30;3.30;;;21.30;99.90;;;;;;5010540;28;20440;-51
2023/06/12 07:27:44;;;;;;;5.70;2.67;;;21.40;99.90;;;;;;5009080;28;20484;-51
2023/06/12 07:30:14;;;;;;;15.03;3.50;;;21.40;99.90;;;;;;5009018;28;20570;-50
2023/06/12 07:32:40;;;;;;;4.63;4.10;;;21.60;99.90;;;;;;5006337;28;20542;-51
2023/06/12 07:35:07;;;;;;;13.53;3.70;;;21.70;99.90;;;;;;5008636;28;20559;-51
2023/06/12 07:37:35;;;;;;;7.17;3.43;;;21.80;99.90;;;;;;5008806;28;20512;-51
2023/06/12 07:40:05;;;;;;;6.10;3.50;;;21.80;99.90;;;;;;5009687;28;20468;-51
2023/06/12 07:42:33;;;;;;;3.40;3.20;;;21.80;99.90;;;;;;5003863;28;20464;-50
2023/06/12 07:44:59;;;;;;;9.03;3.80;;;21.90;99.90;;;;;;5007921;28;20500;-50
2023/06/12 07:47:28;;;;;;;4.80;3.60;;;21.90;99.90;;;;;;5008670;28;20483;-50
2023/06/12 07:49:54;;;;;;;3.87;3.63;;;22.10;99.90;;;;;;5006006;28;20498;-50
2023/06/12 07:52:22;;;;;;;6.70;3.90;;;22.20;99.90;;;;;;5003792;28;20930;-50
2023/06/12 07:54:49;;;;;;;4.20;3.87;;;22.30;99.90;;;;;;5008836;28;20470;-51
2023/06/12 07:57:16;;;;;;;4.17;3.10;;;22.40;99.90;;;;;;5004610;28;20499;-50
2023/06/12 07:59:44;;;;;;;3.60;3.07;;;22.40;99.90;;;;;;5008062;28;20502;-50
2023/06/12 08:02:11;;;;;;;4.97;3.37;;;22.50;99.90;;;;;;5009800;28;20493;-50
2023/06/12 08:04:42;;;;;;;4.83;3.50;;;22.40;99.90;;;;;;5009184;28;20961;-50
2023/06/12 08:07:12;;;;;;;4.33;3.53;;;22.60;99.90;;;;;;5005760;28;20483;-50
2023/06/12 08:09:39;;;;;;;4.23;3.80;;;22.70;99.90;;;;;;5008692;28;20554;-50
2023/06/12 08:12:07;;;;;;;3.30;3.07;;;22.60;95.20;;;;;;5005681;28;20526;-51
2023/06/12 08:14:33;;;;;;;4.93;3.70;;;22.90;99.90;;;;;;5008109;28;20626;-50
2023/06/12 08:17:00;;;;;;;4.00;3.70;;;23.00;99.90;;;;;;5009999;28;20470;-50
2023/06/12 08:19:26;;;;;;;8.70;3.50;;;23.00;99.90;;;;;;5012451;28;21024;-50
2023/06/12 08:21:54;;;;;;;3.50;3.30;;;23.00;91.00;;;;;;5011898;28;20522;-51
2023/06/12 08:24:21;;;;;;;15.37;3.53;;;23.10;72.80;;;;;;5008440;28;20510;-50
2023/06/12 08:26:48;;;;;;;5.07;3.53;;;23.20;21.90;;;;;;5012046;28;20898;-49
2023/06/12 08:29:15;;;;;;;4.20;3.80;;;23.20;23.20;;;;;;5012671;28;20484;-50
2023/06/12 08:31:42;;;;;;;3.57;3.20;;;23.30;22.70;;;;;;5011207;28;20552;-50
2023/06/12 08:34:08;;;;;;;7.10;3.50;;;23.20;22.50;;;;;;5010877;28;20467;-50
2023/06/12 08:36:36;;;;;;;3.77;3.23;;;23.10;23.60;;;;;;5007177;28;20499;-51
2023/06/12 08:39:04;;;;;;;3.57;3.33;;;23.10;23.50;;;;;;5008345;28;20483;-50
2023/06/12 08:41:33;;;;;;;9.03;3.33;;;23.30;22.00;;;;;;5011466;28;20506;-50
2023/06/12 08:44:01;;;;;;;3.90;3.60;;;23.30;21.90;;;;;;5009712;28;20491;-51
2023/06/12 08:46:30;;;;;;;6.43;3.40;;;23.50;21.20;;;;;;5005165;28;20515;-50
2023/06/12 08:48:59;;;;;;;4.17;3.77;;;23.70;75.50;;;;;;5010967;28;20486;-50
2023/06/12 08:51:26;;;;;;;3.87;3.33;;;23.80;24.60;;;;;;5013473;28;20474;-51
2023/06/12 08:53:53;;;;;;;3.30;3.10;;;23.90;24.80;;;;;;5013541;28;20471;-51
2023/06/12 08:56:21;;;;;;;4.23;3.60;;;23.80;24.80;;;;;;5012163;28;20503;-50
2023/06/12 08:58:48;;;;;;;5.13;3.03;;;23.90;24.50;;;;;;5012798;28;20511;-50
2023/06/12 09:01:15;;;;;;;9.70;3.93;;;23.80;24.90;;;;;;5009919;28;20464;-49
2023/06/12 09:03:48;;;;;;;8.20;3.80;;;24.00;23.10;;;;;;5005267;28;21036;-50
2023/06/12 09:06:18;;;;;;;7.43;3.50;;;23.80;26.20;;;;;;5010102;28;20504;-50
2023/06/12 09:08:45;;;;;;;4.73;3.17;;;23.80;25.60;;;;;;5013637;28;20542;-51
2023/06/12 09:11:12;;;;;;;18.57;3.50;;;24.10;24.90;;;;;;5020201;28;20502;-50
2023/06/12 09:13:43;;;;;;;4.70;3.60;;;24.30;25.30;;;;;;5013028;28;20559;-50
2023/06/12 09:16:13;;;;;;;4.10;3.57;;;24.80;23.50;;;;;;5014600;28;20488;-50
2023/06/12 09:18:50;;;;;;;10.23;3.80;;;25.10;27.30;;;;;;5007705;28;20515;-51
2023/06/12 09:21:22;;;;;;;4.87;3.17;;;25.20;27.60;;;;;;5014083;28;20451;-50
2023/06/12 09:23:50;;;;;;;3.93;3.60;;;25.40;29.00;;;;;;5010741;28;20563;-50
2023/06/12 09:26:21;;;;;;;5.17;3.40;;;25.40;29.00;;;;;;5009233;28;20574;-50
2023/06/12 09:28:50;;;;;;;7.23;3.30;;;24.80;28.60;;;;;;5011218;28;20496;-50
2023/06/12 09:31:17;;;;;;;4.03;3.63;;;25.00;27.40;;;;;;5010434;28;20491;-50
2023/06/12 09:33:45;;;;;;;7.20;4.17;;;25.70;25.80;;;;;;5011406;28;20495;-50
2023/06/12 09:36:13;;;;;;;3.73;3.43;;;25.20;29.60;;;;;;5009464;28;20651;-50
2023/06/12 09:38:40;;;;;;;7.50;3.33;;;25.30;28.50;;;;;;5011958;28;20570;-50
2023/06/12 09:41:08;;;;;;;4.30;4.00;;;25.30;27.70;;;;;;5011792;28;21143;-50
2023/06/12 09:43:35;;;;;;;8.10;3.13;;;25.20;28.00;;;;;;5012413;28;20472;-50
2023/06/12 09:46:06;;;;;;;9.40;4.07;;;25.90;27.70;;;;;;5012699;28;20467;-50
2023/06/12 09:48:33;;;;;;;12.77;3.50;;;25.70;27.50;;;;;;5008089;28;20480;-50
2023/06/12 09:51:04;;;;;;;7.80;3.30;;;25.70;28.20;;;;;;5010357;28;20483;-51
2023/06/12 09:53:31;;;;;;;10.03;3.70;;;25.80;27.70;;;;;;5010942;28;20960;-51
2023/06/12 09:55:58;;;;;;;8.00;3.20;;;25.50;29.20;;;;;;5008826;28;20539;-50
2023/06/12 09:58:25;;;;;;;12.67;3.63;;;26.00;27.70;;;;;;5012139;28;20475;-50
2023/06/12 10:00:55;;;;;;;7.53;3.07;;;26.00;28.60;;;;;;5018989;28;20463;-51
2023/06/12 10:03:26;;;;;;;3.50;3.20;;;25.50;29.40;;;;;;5008604;28;20495;-50
2023/06/12 10:05:54;;;;;;;10.50;3.50;;;25.50;26.80;;;;;;5009445;28;20953;-50
2023/06/12 10:08:21;;;;;;;9.67;3.50;;;25.70;26.20;;;;;;5009224;28;20563;-51
2023/06/12 10:10:48;;;;;;;4.83;2.97;;;26.00;29.00;;;;;;5015341;28;20498;-51
2023/06/12 10:13:15;;;;;;;8.17;3.40;;;26.00;26.80;;;;;;5013082;28;20837;-50
2023/06/12 10:15:42;;;;;;;5.57;3.40;;;26.30;28.20;;;;;;5007568;28;20468;-50
2023/06/12 10:18:10;;;;;;;12.10;3.03;;;25.40;29.30;;;;;;5011258;28;20549;-50
2023/06/12 10:20:38;;;;;;;12.13;3.53;;;25.70;27.60;;;;;;5013930;28;20463;-51
2023/06/12 10:23:06;;;;;;;11.80;2.93;;;25.80;27.50;;;;;;5015193;28;20467;-51
2023/06/12 10:25:33;;;;;;;3.30;2.77;;;26.40;27.80;;;;;;5011193;28;20463;-49
2023/06/12 10:28:01;;;;;;;8.57;3.30;;;26.30;29.80;;;;;;5014731;28;20522;-51
2023/06/12 10:30:27;;;;;;;5.47;3.20;;;26.90;29.60;;;;;;5012579;28;20668;-50
2023/06/12 10:32:54;;;;;;;3.63;3.33;;;26.40;28.10;;;;;;5007094;28;20464;-50
2023/06/12 10:35:30;;;;;;;9.87;4.00;;;26.30;26.60;;;;;;5012684;28;20537;-50
2023/06/12 10:37:58;;;;;;;3.33;3.13;;;26.50;24.40;;;;;;5012769;28;20459;-50
2023/06/12 10:40:25;;;;;;;3.50;3.20;;;26.60;27.40;;;;;;5004513;28;20551;-50
2023/06/12 10:43:02;;;;;;;3.73;3.23;;;26.10;26.40;;;;;;5011620;28;20502;-50
2023/06/12 10:45:29;;;;;;;6.03;4.00;;;26.00;25.70;;;;;;5002010;28;20542;-51
2023/06/12 10:48:19;;;;;;;10.27;3.60;;;26.80;27.50;;;;;;5011120;28;20510;-55
2023/06/12 10:50:48;;;;;;;5.40;3.63;;;27.30;30.00;;;;;;5011645;28;20525;-50
2023/06/12 10:53:21;;;;;;;5.23;3.87;;;28.00;29.00;;;;;;5002187;28;20496;-51
2023/06/12 10:55:48;;;;;;;7.70;3.27;;;28.30;29.10;;;;;;5006411;28;20546;-50
2023/06/12 10:58:17;;;;;;;6.20;3.13;;;28.00;30.00;;;;;;5001555;28;20472;-50
2023/06/12 11:00:46;;;;;;;13.87;4.47;;;26.90;27.40;;;;;;5006239;28;20842;-51
2023/06/12 11:03:14;;;;;;;4.77;3.67;;;26.40;27.00;;;;;;5009365;28;20486;-51
2023/06/12 11:05:47;;;;;;;3.87;3.40;;;26.20;26.10;;;;;;5011262;28;20464;-50
2023/06/12 11:08:16;;;;;;;10.03;3.70;;;25.80;27.90;;;;;;5011106;28;20495;-50
2023/06/12 11:10:44;;;;;;;6.30;3.97;;;26.30;27.40;;;;;;5002871;28;20475;-50
2023/06/12 11:13:10;;;;;;;6.83;3.40;;;27.30;26.30;;;;;;5009557;28;20468;-50
2023/06/12 11:15:44;;;;;;;8.33;3.60;;;27.20;27.40;;;;;;5003606;28;21679;-50
2023/06/12 11:18:11;;;;;;;10.20;3.20;;;27.60;27.40;;;;;;5008745;28;20901;-51
2023/06/12 11:20:39;;;;;;;6.77;3.90;;;27.60;26.20;;;;;;5010185;28;20739;-51
2023/06/12 11:23:06;;;;;;;5.30;4.00;;;27.10;24.70;;;;;;5010275;28;20455;-51
2023/06/12 11:25:35;;;;;;;3.47;3.27;;;26.80;23.80;;;;;;5009054;28;20546;-51
2023/06/12 11:28:03;;;;;;;12.13;3.63;;;26.20;23.80;;;;;;4999955;28;20836;-50
2023/06/12 11:30:30;;;;;;;5.20;3.43;;;25.70;21.50;;;;;;5003067;28;20499;-50
2023/06/12 11:32:56;;;;;;;7.47;3.70;;;25.90;22.00;;;;;;5005516;28;20519;-50
2023/06/12 11:35:23;;;;;;;4.57;3.33;;;26.10;24.10;;;;;;5002923;28;20558;-51
2023/06/12 11:37:52;;;;;;;4.60;4.00;;;26.20;21.10;;;;;;5003843;28;20488;-50
2023/06/12 11:40:18;;;;;;;4.47;4.07;;;26.00;23.90;;;;;;5010184;28;20987;-50
2023/06/12 11:42:49;;;;;;;4.93;4.00;;;25.90;23.20;;;;;;5010266;28;20464;-51
2023/06/12 11:45:16;;;;;;;5.63;3.80;;;25.30;22.30;;;;;;5006712;28;20459;-50
2023/06/12 11:47:45;;;;;;;7.33;4.73;;;25.70;21.60;;;;;;5003868;28;21043;-51
2023/06/12 11:50:15;;;;;;;4.47;3.50;;;25.80;22.90;;;;;;5007411;28;20462;-50
2023/06/12 11:52:43;;;;;;;4.37;3.97;;;25.90;22.90;;;;;;5011909;28;20507;-51
2023/06/12 11:55:11;;;;;;;5.50;3.90;;;26.20;23.10;;;;;;5012145;28;20485;-51
2023/06/12 11:57:39;;;;;;;5.73;3.87;;;26.30;24.80;;;;;;5011828;28;20510;-50
2023/06/12 12:00:12;;;;;;;12.30;3.57;;;26.00;24.90;;;;;;5010943;28;20487;-50
2023/06/12 12:02:42;;;;;;;4.53;3.80;;;26.50;22.60;;;;;;5011986;28;21032;-51
2023/06/12 12:05:11;;;;;;;5.20;4.37;;;26.90;27.40;;;;;;5016835;28;20493;-50
2023/06/12 12:07:39;;;;;;;7.20;3.50;;;26.90;24.70;;;;;;5010683;28;20487;-50
2023/06/12 12:10:08;;;;;;;3.87;3.50;;;27.30;25.70;;;;;;5005690;28;20929;-51
2023/06/12 12:12:45;;;;;;;4.30;3.90;;;27.30;27.50;;;;;;5012937;28;20521;-50
2023/06/12 12:15:14;;;;;;;3.63;3.40;;;27.80;27.40;;;;;;5009617;28;20466;-51
2023/06/12 12:17:42;;;;;;;4.57;3.73;;;27.90;27.20;;;;;;5006658;28;20483;-51
2023/06/12 12:20:16;;;;;;;7.03;3.30;;;27.40;27.20;;;;;;5015833;28;20490;-51
2023/06/12 12:22:44;;;;;;;5.13;3.93;;;27.10;28.40;;;;;;5013021;28;20495;-51
2023/06/12 12:25:15;;;;;;;4.27;3.27;;;27.30;27.40;;;;;;5011932;28;20467;-52
2023/06/12 12:27:44;;;;;;;14.23;3.30;;;27.40;28.80;;;;;;5008404;28;20526;-51
2023/06/12 12:30:14;;;;;;;3.90;3.60;;;27.50;28.20;;;;;;5007722;28;21086;-50
2023/06/12 12:32:41;;;;;;;8.97;3.43;;;27.40;28.50;;;;;;5003353;28;20462;-50
2023/06/12 12:35:08;;;;;;;3.20;2.97;;;27.60;27.80;;;;;;5010409;28;20539;-51
2023/06/12 12:37:35;;;;;;;6.10;3.00;;;26.60;29.30;;;;;;5012773;28;20537;-51
2023/06/12 12:40:05;;;;;;;8.30;3.80;;;27.00;26.50;;;;;;5012154;28;20973;-50
2023/06/12 12:42:31;;;;;;;6.33;4.00;;;27.30;27.10;;;;;;5011951;28;20455;-51
2023/06/12 12:44:58;;;;;;;3.43;3.13;;;27.30;26.80;;;;;;5011411;28;20520;-50
2023/06/12 12:47:26;;;;;;;4.27;3.97;;;26.40;26.50;;;;;;5012793;28;20518;-53
2023/06/12 12:49:53;;;;;;;4.97;3.70;;;26.40;25.80;;;;;;5011383;28;20464;-51